Time;durP1;ratioP1;P1;durP2;ratioP2;P2;SDS_P1;SDS_P2;PMS_P1;PMS_P2;Temp;Humidity;BMP_temperature;BMP_pressure;BME280_temperature;BME280_humidity;BME280_pressure;Samples;Min_cycle;Max_cycle;Signal;HPM_P1;HPM_P2
2023/06/17 00:00:46;;;;;;;12.70;9.30;;;;;;;15.86;84.03;100796.55;108067;1259;73754;-74
2023/06/17 00:03:13;;;;;;;15.10;9.80;;;;;;;15.85;84.36;100797.99;108397;1258;70316;-73
2023/06/17 00:05:41;;;;;;;15.00;9.90;;;;;;;15.84;84.77;100796.67;107822;1260;70475;-73
2023/06/17 00:08:08;;;;;;;12.40;9.50;;;;;;;15.82;84.79;100792.64;108010;1260;61343;-74
2023/06/17 00:10:35;;;;;;;12.00;9.70;;;;;;;15.81;84.67;100795.23;108090;1258;60319;-73
2023/06/17 00:13:02;;;;;;;12.80;10.20;;;;;;;15.81;85.35;100793.76;107991;1260;75180;-73
2023/06/17 00:15:32;;;;;;;14.40;10.00;;;;;;;15.79;85.84;100788.95;108410;1258;69951;-74
2023/06/17 00:18:00;;;;;;;12.50;9.90;;;;;;;15.79;85.77;100788.33;108002;1260;71716;-73
2023/06/17 00:20:29;;;;;;;13.00;9.40;;;;;;;15.77;85.94;100784.54;108109;1260;61055;-73
2023/06/17 00:22:56;;;;;;;12.90;9.50;;;;;;;15.76;85.83;100783.73;108380;1258;61321;-74
2023/06/17 00:25:22;;;;;;;10.80;9.60;;;;;;;15.73;85.92;100779.81;107695;1259;74191;-73
2023/06/17 00:27:49;;;;;;;11.60;9.90;;;;;;;15.69;86.00;100777.77;107699;1259;70067;-73
2023/06/17 00:30:16;;;;;;;11.90;9.20;;;;;;;15.67;85.97;100777.76;108069;1259;71109;-75
2023/06/17 00:32:44;;;;;;;10.80;9.50;;;;;;;15.63;86.26;100776.77;108345;1260;62055;-73
2023/06/17 00:35:10;;;;;;;11.70;9.50;;;;;;;15.58;86.68;100777.32;108291;1258;60378;-73
2023/06/17 00:37:38;;;;;;;13.80;9.70;;;;;;;15.54;86.80;100776.29;108363;1259;74439;-75
2023/06/17 00:40:09;;;;;;;12.10;10.00;;;;;;;15.50;86.62;100774.48;108126;1259;70945;-74
2023/06/17 00:42:37;;;;;;;12.10;10.10;;;;;;;15.46;86.75;100776.25;107979;1262;71999;-73
2023/06/17 00:45:04;;;;;;;12.30;10.40;;;;;;;15.42;86.83;100772.46;107641;1260;62203;-73
2023/06/17 00:47:31;;;;;;;13.90;10.40;;;;;;;15.40;87.03;100770.48;108690;1258;59040;-75
2023/06/17 00:49:59;;;;;;;13.50;10.20;;;;;;;15.37;87.41;100766.86;108234;1259;74737;-73
2023/06/17 00:52:27;;;;;;;12.40;9.90;;;;;;;15.35;87.79;100769.86;108378;1259;70244;-73
2023/06/17 00:55:09;;;;;;;11.40;9.80;;;;;;;15.32;87.98;100771.91;108045;1261;72547;-74
2023/06/17 00:57:38;;;;;;;11.80;10.60;;;;;;;15.29;88.08;100772.26;108000;1259;62204;-73
2023/06/17 01:00:10;;;;;;;12.90;10.60;;;;;;;15.25;88.25;100772.20;108033;1262;60697;-73
2023/06/17 01:02:43;;;;;;;12.80;10.90;;;;;;;15.22;88.53;100773.96;107981;1259;73493;-73
2023/06/17 01:05:14;;;;;;;12.10;10.70;;;;;;;15.18;88.50;100772.96;107714;1260;70999;-74
2023/06/17 01:08:01;;;;;;;13.80;10.80;;;;;;;15.16;88.74;100770.79;108001;1259;71546;-73
2023/06/17 01:10:56;;;;;;;12.60;11.30;;;;;;;15.14;89.25;100768.36;108084;1258;61363;-73
2023/06/17 01:13:27;;;;;;;15.00;11.70;;;;;;;15.12;89.27;100768.89;107940;1258;59701;-73
2023/06/17 01:15:55;;;;;;;13.20;11.60;;;;;;;15.09;89.67;100766.46;108132;1258;74647;-73
2023/06/17 01:18:24;;;;;;;13.60;11.40;;;;;;;15.08;89.93;100762.91;108036;1259;70477;-76
2023/06/17 01:20:53;;;;;;;16.00;11.90;;;;;;;15.05;89.83;100759.06;107896;1259;71899;-75
2023/06/17 01:23:23;;;;;;;13.70;12.20;;;;;;;15.03;90.10;100759.80;107614;1259;61259;-74
2023/06/17 01:25:51;;;;;;;13.40;12.00;;;;;;;15.01;90.61;100762.21;107508;1265;62002;-73
2023/06/17 01:28:19;;;;;;;13.40;12.00;;;;;;;14.99;90.92;100757.33;107780;1260;74658;-73
2023/06/17 01:30:47;;;;;;;14.10;12.30;;;;;;;14.97;91.16;100758.80;108106;1263;72302;-73
2023/06/17 01:33:15;;;;;;;15.60;13.10;;;;;;;14.96;90.97;100757.20;108160;1259;71552;-74
2023/06/17 01:35:52;;;;;;;15.20;12.10;;;;;;;14.94;90.86;100752.67;108283;1258;60699;-73
2023/06/17 01:38:23;;;;;;;15.60;13.00;;;;;;;14.92;90.67;100750.08;108192;1259;59246;-73
2023/06/17 01:40:54;;;;;;;14.90;13.30;;;;;;;14.89;90.90;100749.45;108120;1259;75278;-73
2023/06/17 01:43:23;;;;;;;14.70;13.20;;;;;;;14.86;91.26;100750.19;108126;1259;69755;-74
2023/06/17 01:45:51;;;;;;;16.10;14.00;;;;;;;14.83;91.42;100750.42;107913;1258;72705;-74
2023/06/17 01:48:18;;;;;;;15.50;13.90;;;;;;;14.80;91.73;100749.70;107940;1259;61827;-74
2023/06/17 01:50:45;;;;;;;15.10;13.60;;;;;;;14.77;91.81;100754.95;108372;1259;60365;-74
2023/06/17 01:53:13;;;;;;;15.80;13.80;;;;;;;14.73;91.76;100755.48;108030;1262;75624;-74
2023/06/17 01:55:40;;;;;;;16.40;14.60;;;;;;;14.67;91.86;100757.23;108206;1259;70995;-73
2023/06/17 01:58:07;;;;;;;17.90;14.30;;;;;;;14.62;91.93;100760.17;108074;1262;73105;-74
2023/06/17 02:00:34;;;;;;;18.50;14.70;;;;;;;14.58;92.12;100759.63;107912;1260;61988;-74
2023/06/17 02:03:01;;;;;;;17.60;15.20;;;;;;;14.55;92.43;100763.14;108174;1259;61144;-74
2023/06/17 02:05:28;;;;;;;16.20;14.10;;;;;;;14.49;92.66;100759.70;108025;1260;73658;-73
2023/06/17 02:07:56;;;;;;;20.70;15.40;;;;;;;14.43;92.72;100751.23;108418;1260;71272;-73
2023/06/17 02:10:23;;;;;;;19.10;15.90;;;;;;;14.38;93.03;100751.50;107924;1258;71322;-74
2023/06/17 02:12:50;;;;;;;17.80;15.60;;;;;;;14.35;93.49;100749.60;107756;1259;61066;-72
2023/06/17 02:15:17;;;;;;;17.60;15.30;;;;;;;14.33;93.76;100755.13;107870;1259;60411;-72
2023/06/17 02:17:44;;;;;;;17.70;15.80;;;;;;;14.29;93.82;100755.20;108248;1259;74616;-71
2023/06/17 02:20:11;;;;;;;19.00;16.40;;;;;;;14.26;93.88;100754.27;107676;1259;69939;-72
2023/06/17 02:22:38;;;;;;;18.00;16.10;;;;;;;14.24;94.07;100757.27;108194;1260;72904;-74
2023/06/17 02:25:06;;;;;;;21.20;17.40;;;;;;;14.23;94.50;100757.59;107824;1258;61803;-74
2023/06/17 02:27:33;;;;;;;22.60;17.80;;;;;;;14.22;94.53;100758.98;108094;1260;61243;-74
2023/06/17 02:30:00;;;;;;;19.20;17.10;;;;;;;14.22;94.99;100757.91;108177;1260;74720;-76
2023/06/17 02:32:28;;;;;;;21.70;18.20;;;;;;;14.21;95.32;100756.59;107882;1260;72391;-75
2023/06/17 02:34:57;;;;;;;22.70;18.20;;;;;;;14.20;95.45;100749.94;108023;1260;72400;-73
2023/06/17 02:37:24;;;;;;;20.00;17.60;;;;;;;14.18;95.19;100748.78;108063;1258;62092;-75
2023/06/17 02:39:51;;;;;;;21.80;18.30;;;;;;;14.15;95.44;100746.34;108251;1260;61220;-74
2023/06/17 02:42:18;;;;;;;21.00;18.80;;;;;;;14.12;95.40;100749.44;108015;1259;73065;-73
2023/06/17 02:44:45;;;;;;;21.80;18.90;;;;;;;14.09;95.72;100747.87;107839;1258;71678;-73
2023/06/17 02:47:12;;;;;;;21.60;19.20;;;;;;;14.05;95.94;100745.27;108001;1259;72721;-74
2023/06/17 02:49:40;;;;;;;21.00;18.50;;;;;;;14.04;96.01;100740.48;108153;1259;61384;-73
2023/06/17 02:52:07;;;;;;;22.60;19.60;;;;;;;14.01;95.81;100739.56;107997;1258;59233;-74
2023/06/17 02:54:34;;;;;;;20.60;18.30;;;;;;;13.97;96.20;100739.51;107777;1260;73293;-73
2023/06/17 02:57:01;;;;;;;21.70;18.40;;;;;;;13.94;96.47;100740.70;107858;1260;68974;-74
2023/06/17 02:59:31;;;;;;;22.70;18.90;;;;;;;13.90;96.67;100739.05;108018;1259;71765;-74
2023/06/17 03:01:57;;;;;;;21.20;18.90;;;;;;;13.87;96.51;100735.64;107724;1260;61738;-75
2023/06/17 03:04:25;;;;;;;21.50;18.40;;;;;;;13.84;96.71;100734.38;108114;1260;59348;-74
2023/06/17 03:06:52;;;;;;;20.30;18.20;;;;;;;13.81;96.94;100739.25;107904;1259;74748;-74
2023/06/17 03:09:19;;;;;;;18.00;15.90;;;;;;;13.78;97.17;100743.70;107941;1260;70073;-73
2023/06/17 03:11:46;;;;;;;19.70;16.80;;;;;;;13.77;97.04;100749.92;107796;1258;72040;-74
2023/06/17 03:14:19;;;;;;;17.70;14.60;;;;;;;13.78;97.01;100749.06;107516;1259;61538;-74
2023/06/17 03:16:46;;;;;;;16.50;13.60;;;;;;;13.78;96.62;100754.00;108224;1260;61203;-74
2023/06/17 03:19:16;;;;;;;15.10;13.50;;;;;;;13.79;96.16;100750.92;107845;1259;74513;-72
2023/06/17 03:21:43;;;;;;;13.70;12.10;;;;;;;13.82;95.89;100754.27;107661;1259;71181;-74
2023/06/17 03:24:10;;;;;;;14.30;12.20;;;;;;;13.83;95.27;100757.65;108132;1260;71685;-74
2023/06/17 03:26:37;;;;;;;14.80;12.40;;;;;;;13.87;94.94;100760.70;107828;1260;60463;-74
2023/06/17 03:29:04;;;;;;;15.60;12.00;;;;;;;13.94;94.77;100756.72;107619;1258;60497;-74
2023/06/17 03:31:31;;;;;;;13.60;11.80;;;;;;;13.99;94.58;100754.50;107808;1259;73944;-74
2023/06/17 03:33:58;;;;;;;14.90;12.00;;;;;;;14.04;94.03;100753.79;107753;1260;71205;-75
2023/06/17 03:36:28;;;;;;;13.50;12.10;;;;;;;14.11;94.05;100748.79;107773;1259;72842;-74
2023/06/17 03:38:56;;;;;;;15.70;11.90;;;;;;;14.19;93.90;100748.00;107691;1258;60862;-74
2023/06/17 03:41:26;;;;;;;13.60;11.30;;;;;;;14.28;94.09;100744.80;107548;1259;61186;-74
2023/06/17 03:43:53;;;;;;;13.30;10.90;;;;;;;14.36;93.49;100748.67;108066;1259;74604;-75
2023/06/17 03:46:20;;;;;;;13.10;11.20;;;;;;;14.41;92.70;100748.32;107492;1260;71389;-74
2023/06/17 03:48:47;;;;;;;12.40;11.00;;;;;;;14.46;92.44;100748.87;108037;1259;72513;-75
2023/06/17 03:51:14;;;;;;;14.80;10.30;;;;;;;14.51;91.74;100749.05;107887;1258;60787;-75
2023/06/17 03:53:41;;;;;;;13.20;10.70;;;;;;;14.52;90.98;100747.05;108081;1258;60489;-73
2023/06/17 03:56:08;;;;;;;13.20;10.30;;;;;;;14.52;90.42;100749.92;107843;1260;73955;-74
2023/06/17 03:58:35;;;;;;;12.30;9.80;;;;;;;14.50;89.85;100753.73;108149;1258;71128;-74
2023/06/17 04:01:02;;;;;;;13.80;10.50;;;;;;;14.48;89.18;100753.05;108094;1258;72761;-74
2023/06/17 04:03:29;;;;;;;11.70;9.70;;;;;;;14.47;88.83;100752.48;108035;1260;61297;-74
2023/06/17 04:05:57;;;;;;;14.60;10.00;;;;;;;14.51;88.96;100751.02;107677;1259;61575;-75
2023/06/17 04:08:24;;;;;;;11.40;9.40;;;;;;;14.56;88.96;100747.33;107770;1260;74784;-74
2023/06/17 04:10:51;;;;;;;11.00;9.40;;;;;;;14.61;87.78;100747.23;107906;1260;72014;-75
2023/06/17 04:13:19;;;;;;;12.40;9.90;;;;;;;14.64;87.32;100742.84;107946;1258;71977;-73
2023/06/17 04:15:46;;;;;;;11.80;9.90;;;;;;;14.70;87.05;100744.47;107754;1258;61361;-74
2023/06/17 04:18:13;;;;;;;11.60;10.00;;;;;;;14.76;86.81;100748.84;107968;1259;59608;-74
2023/06/17 04:20:40;;;;;;;11.90;9.70;;;;;;;14.81;86.35;100745.77;108381;1260;73768;-75
2023/06/17 04:23:07;;;;;;;11.00;9.60;;;;;;;14.91;86.53;100744.16;107774;1259;70101;-75
2023/06/17 04:25:36;;;;;;;11.80;9.60;;;;;;;14.99;86.08;100747.70;107861;1260;72515;-75
2023/06/17 04:28:12;;;;;;;12.30;9.50;;;;;;;15.04;86.15;100747.55;108191;1259;61310;-74
2023/06/17 04:30:40;;;;;;;12.40;9.50;;;;;;;15.08;86.15;100749.00;108149;1260;60383;-74
2023/06/17 04:33:11;;;;;;;11.20;9.40;;;;;;;15.15;86.01;100754.40;108188;1259;74508;-77
2023/06/17 04:35:41;;;;;;;11.00;9.70;;;;;;;15.20;85.95;100748.89;108102;1260;71208;-75
2023/06/17 04:38:10;;;;;;;11.90;9.50;;;;;;;15.26;85.67;100751.44;108308;1259;70674;-77
2023/06/17 04:40:37;;;;;;;13.70;9.90;;;;;;;15.30;85.45;100751.27;108153;1259;62287;-75
2023/06/17 04:43:05;;;;;;;11.20;9.70;;;;;;;15.37;85.38;100751.98;107714;1260;61340;-73
2023/06/17 04:45:35;;;;;;;13.00;10.00;;;;;;;15.45;85.25;100752.85;108111;1260;73534;-75
2023/06/17 04:48:05;;;;;;;13.60;10.10;;;;;;;15.56;85.30;100749.18;108123;1260;73238;-76
2023/06/17 04:50:33;;;;;;;13.30;10.10;;;;;;;15.66;84.85;100748.15;107550;1260;71155;-73
2023/06/17 04:53:03;;;;;;;13.30;10.40;;;;;;;15.73;84.83;100751.09;107724;1260;61986;-74
2023/06/17 04:55:35;;;;;;;13.90;10.40;;;;;;;15.80;84.86;100754.37;107636;1258;61034;-76
2023/06/17 04:58:03;;;;;;;16.40;11.20;;;;;;;15.86;84.88;100756.44;108567;1259;73534;-76
2023/06/17 05:00:30;;;;;;;14.90;11.00;;;;;;;15.91;85.03;100755.38;108070;1260;71330;-76
2023/06/17 05:02:57;;;;;;;16.10;12.10;;;;;;;15.96;85.14;100755.14;107572;1259;73272;-75
2023/06/17 05:05:24;;;;;;;15.80;11.90;;;;;;;15.97;85.23;100757.67;107791;1260;61270;-76
2023/06/17 05:07:51;;;;;;;15.90;11.30;;;;;;;16.01;85.47;100751.21;107687;1258;61244;-76
2023/06/17 05:10:18;;;;;;;15.60;11.40;;;;;;;16.08;85.10;100750.91;107812;1259;73540;-75
2023/06/17 05:12:45;;;;;;;14.50;11.70;;;;;;;16.10;84.82;100748.30;107971;1260;69989;-76
2023/06/17 05:15:12;;;;;;;15.90;12.00;;;;;;;16.11;84.69;100747.36;108223;1259;72478;-75
2023/06/17 05:17:39;;;;;;;15.90;12.10;;;;;;;16.13;85.03;100750.98;108138;1260;60825;-77
2023/06/17 05:20:10;;;;;;;17.60;12.40;;;;;;;16.18;85.07;100747.83;108322;1260;61154;-73
2023/06/17 05:22:37;;;;;;;17.90;13.30;;;;;;;16.28;85.56;100745.91;107786;1260;72973;-74
2023/06/17 05:25:04;;;;;;;18.30;13.40;;;;;;;16.39;85.43;100747.80;107658;1259;70023;-73
2023/06/17 05:27:32;;;;;;;21.30;15.00;;;;;;;16.46;85.22;100746.61;107952;1260;71508;-74
2023/06/17 05:29:59;;;;;;;19.90;14.40;;;;;;;16.50;84.96;100749.48;107958;1260;62587;-74
2023/06/17 05:32:26;;;;;;;17.30;13.50;;;;;;;16.56;84.91;100748.42;107631;1260;61259;-74
2023/06/17 05:34:53;;;;;;;18.40;13.70;;;;;;;16.59;84.32;100754.84;107889;1260;73471;-73
2023/06/17 05:37:20;;;;;;;17.00;12.40;;;;;;;16.59;84.30;100757.85;107946;1260;70172;-77
2023/06/17 05:39:47;;;;;;;17.50;13.00;;;;;;;16.58;83.95;100759.59;107648;1259;70973;-75
2023/06/17 05:42:14;;;;;;;16.10;12.30;;;;;;;16.58;84.00;100760.74;108076;1260;62212;-74
2023/06/17 05:44:41;;;;;;;17.70;13.40;;;;;;;16.61;84.20;100762.38;107508;1259;60402;-73
2023/06/17 05:47:08;;;;;;;16.00;13.10;;;;;;;16.65;84.11;100760.91;107946;1260;75628;-76
2023/06/17 05:49:35;;;;;;;16.00;12.60;;;;;;;16.69;84.18;100759.73;107567;1259;70416;-77
2023/06/17 05:52:02;;;;;;;16.90;13.50;;;;;;;16.73;84.07;100766.15;107207;1264;72408;-75
2023/06/17 05:54:29;;;;;;;18.90;14.00;;;;;;;16.73;84.12;100765.98;107943;1259;61136;-76
2023/06/17 05:56:56;;;;;;;18.80;14.70;;;;;;;16.78;84.16;100764.55;107926;1262;59587;-75
2023/06/17 05:59:24;;;;;;;23.60;15.70;;;;;;;16.80;84.16;100766.81;108040;1260;73414;-75
2023/06/17 06:01:51;;;;;;;21.80;15.90;;;;;;;16.79;84.14;100773.00;108238;1260;70728;-74
2023/06/17 06:04:18;;;;;;;23.10;15.90;;;;;;;16.83;84.50;100774.63;108593;1262;72659;-74
2023/06/17 06:06:46;;;;;;;24.20;17.10;;;;;;;16.88;84.78;100776.99;107774;1260;62801;-74
2023/06/17 06:09:12;;;;;;;22.00;16.60;;;;;;;16.87;84.59;100771.13;108157;1260;60819;-76
2023/06/17 06:11:39;;;;;;;25.40;17.20;;;;;;;16.95;84.44;100776.91;107837;1260;73500;-77
2023/06/17 06:14:06;;;;;;;24.60;17.50;;;;;;;16.94;84.45;100781.16;107343;1260;70410;-75
2023/06/17 06:16:33;;;;;;;24.90;17.80;;;;;;;16.99;84.55;100783.85;107475;1262;72513;-73
2023/06/17 06:19:00;;;;;;;29.60;18.70;;;;;;;17.11;84.58;100787.48;107557;1260;62020;-74
2023/06/17 06:21:27;;;;;;;30.30;18.50;;;;;;;17.16;83.67;100787.76;107871;1264;61252;-75
2023/06/17 06:23:54;;;;;;;27.10;18.80;;;;;;;17.24;83.57;100786.79;107990;1260;73967;-73
2023/06/17 06:26:24;;;;;;;31.70;20.10;;;;;;;17.30;82.94;100783.91;107584;1258;71599;-76
2023/06/17 06:28:50;;;;;;;30.50;19.70;;;;;;;17.34;82.64;100784.61;107119;1263;72777;-74
2023/06/17 06:31:18;;;;;;;29.40;19.00;;;;;;;17.41;82.44;100782.21;107428;1260;60735;-76
2023/06/17 06:33:46;;;;;;;28.60;19.20;;;;;;;17.42;81.68;100784.21;107761;1260;61161;-74
2023/06/17 06:36:13;;;;;;;29.80;18.70;;;;;;;17.43;81.72;100786.85;107453;1260;74638;-74
2023/06/17 06:38:40;;;;;;;28.30;19.00;;;;;;;17.47;81.63;100787.15;107320;1265;71319;-74
2023/06/17 06:41:07;;;;;;;28.10;18.90;;;;;;;17.54;81.57;100790.27;108082;1260;71505;-75
2023/06/17 06:43:34;;;;;;;29.80;19.90;;;;;;;17.61;81.11;100791.50;107785;1265;62553;-76
2023/06/17 06:46:01;;;;;;;28.30;19.10;;;;;;;17.69;80.50;100794.28;107747;1259;60684;-75
2023/06/17 06:48:28;;;;;;;29.90;19.00;;;;;;;17.74;79.94;100794.39;107731;1260;74526;-74
2023/06/17 06:50:55;;;;;;;26.00;18.70;;;;;;;17.80;79.53;100793.73;107829;1260;69388;-75
2023/06/17 06:53:23;;;;;;;26.00;18.60;;;;;;;17.82;78.79;100792.40;107693;1260;71465;-75
2023/06/17 06:55:51;;;;;;;27.00;18.20;;;;;;;17.83;78.51;100796.95;107341;1261;61562;-76
2023/06/17 06:58:17;;;;;;;27.80;18.80;;;;;;;17.79;78.15;100793.74;107869;1259;60037;-76
2023/06/17 07:00:45;;;;;;;27.30;18.70;;;;;;;17.81;78.35;100798.60;107633;1260;73844;-76
2023/06/17 07:03:12;;;;;;;26.70;18.50;;;;;;;17.87;78.03;100796.83;107795;1260;71010;-78
2023/06/17 07:05:39;;;;;;;27.40;18.30;;;;;;;17.89;77.65;100797.31;107835;1258;72424;-80
2023/06/17 07:08:06;;;;;;;28.00;17.80;;;;;;;17.92;77.40;100802.33;107616;1259;61959;-79
2023/06/17 07:10:34;;;;;;;26.00;17.80;;;;;;;17.95;77.30;100802.59;107613;1264;61943;-79
2023/06/17 07:13:01;;;;;;;28.20;18.10;;;;;;;17.87;76.73;100800.58;107608;1262;74146;-80
2023/06/17 07:15:30;;;;;;;26.70;18.60;;;;;;;17.92;76.96;100805.01;107754;1260;69956;-79
2023/06/17 07:17:57;;;;;;;28.50;19.30;;;;;;;17.94;76.34;100805.61;107542;1260;72268;-78
2023/06/17 07:20:24;;;;;;;31.30;19.80;;;;;;;17.99;76.24;100802.80;107971;1260;61779;-75
2023/06/17 07:22:51;;;;;;;29.20;20.50;;;;;;;18.11;76.23;100810.98;107835;1262;59153;-77
2023/06/17 07:25:18;;;;;;;30.40;21.30;;;;;;;18.20;75.94;100809.27;108001;1261;73571;-77
2023/06/17 07:27:45;;;;;;;29.90;21.20;;;;;;;18.27;75.17;100812.05;108763;1260;71388;-76
2023/06/17 07:30:14;;;;;;;33.50;22.80;;;;;;;18.24;74.85;100813.82;108642;1258;72745;-77
2023/06/17 07:32:42;;;;;;;33.80;22.70;;;;;;;18.20;74.50;100817.04;108692;1260;60455;-76
2023/06/17 07:35:09;;;;;;;31.50;21.90;;;;;;;18.20;74.60;100816.67;108701;1260;60991;-77
2023/06/17 07:37:36;;;;;;;27.40;19.90;;;;;;;18.25;74.79;100816.31;108657;1259;73539;-78
2023/06/17 07:40:05;;;;;;;30.10;20.90;;;;;;;18.25;74.08;100815.20;108763;1259;69948;-82
2023/06/17 07:42:32;;;;;;;30.90;20.60;;;;;;;18.25;74.02;100813.77;108034;1263;72454;-76
2023/06/17 07:44:59;;;;;;;26.70;18.90;;;;;;;18.23;73.74;100815.77;107389;1265;61878;-77
2023/06/17 07:47:26;;;;;;;28.70;19.80;;;;;;;18.21;73.85;100814.81;107757;1263;61248;-78
2023/06/17 07:49:53;;;;;;;27.40;20.40;;;;;;;18.19;74.07;100815.98;108703;1262;73015;-76
2023/06/17 07:52:20;;;;;;;27.10;19.30;;;;;;;18.24;74.43;100813.45;108641;1260;70019;-77
2023/06/17 07:54:47;;;;;;;24.10;18.00;;;;;;;18.29;74.18;100815.49;108397;1262;71508;-76
2023/06/17 07:57:14;;;;;;;25.30;18.20;;;;;;;18.34;73.70;100822.02;108059;1259;62026;-77
2023/06/17 07:59:42;;;;;;;26.30;18.70;;;;;;;18.31;73.94;100821.80;107861;1260;59348;-78
2023/06/17 08:02:09;;;;;;;26.40;17.50;;;;;;;18.36;74.24;100820.96;107584;1260;74035;-78
2023/06/17 08:04:37;;;;;;;23.70;16.80;;;;;;;18.34;74.26;100821.32;107507;1263;69664;-75
2023/06/17 08:07:04;;;;;;;21.60;15.50;;;;;;;18.32;74.42;100821.92;107871;1259;72740;-76
2023/06/17 08:09:31;;;;;;;23.00;16.60;;;;;;;18.35;74.01;100818.94;107735;1260;62999;-79
2023/06/17 08:11:58;;;;;;;22.70;16.70;;;;;;;18.49;74.01;100819.25;107630;1259;59231;-75
2023/06/17 08:14:28;;;;;;;21.00;15.90;;;;;;;18.60;73.30;100822.18;107499;1258;72522;-79
2023/06/17 08:16:55;;;;;;;21.80;16.40;;;;;;;18.63;72.29;100818.88;107731;1261;71588;-74
2023/06/17 08:19:23;;;;;;;20.10;15.20;;;;;;;18.74;72.54;100816.88;107757;1262;73234;-75
2023/06/17 08:21:50;;;;;;;19.30;14.00;;;;;;;18.78;71.42;100816.85;107684;1266;61406;-79
2023/06/17 08:24:19;;;;;;;20.50;14.70;;;;;;;18.73;71.14;100817.39;108342;1260;60494;-79
2023/06/17 08:26:46;;;;;;;18.50;14.50;;;;;;;18.71;71.17;100816.91;107881;1263;74707;-78
2023/06/17 08:29:13;;;;;;;19.00;15.00;;;;;;;18.74;71.13;100817.34;108027;1259;71420;-77
2023/06/17 08:31:45;;;;;;;20.60;14.90;;;;;;;18.81;71.12;100819.88;108110;1260;72667;-79
2023/06/17 08:34:13;;;;;;;18.40;14.20;;;;;;;18.86;70.90;100816.96;107880;1260;60752;-78
2023/06/17 08:36:42;;;;;;;19.10;15.00;;;;;;;18.92;70.95;100820.28;107923;1260;59523;-77
2023/06/17 08:39:09;;;;;;;18.00;14.80;;;;;;;18.97;70.54;100819.59;107494;1260;73956;-77
2023/06/17 08:41:39;;;;;;;18.80;15.30;;;;;;;19.04;70.26;100821.61;107487;1259;69968;-80
2023/06/17 08:44:07;;;;;;;18.20;15.50;;;;;;;19.10;69.73;100824.89;107903;1259;71164;-76
2023/06/17 08:46:34;;;;;;;20.00;15.80;;;;;;;19.26;70.05;100824.23;107794;1264;61070;-75
2023/06/17 08:49:03;;;;;;;18.00;14.70;;;;;;;19.43;69.08;100827.41;107759;1260;59966;-77
2023/06/17 08:51:30;;;;;;;17.80;14.60;;;;;;;19.55;68.51;100827.11;108101;1260;73733;-79
2023/06/17 08:53:58;;;;;;;18.40;15.10;;;;;;;19.67;68.17;100826.72;107832;1261;71357;-80
2023/06/17 08:56:25;;;;;;;21.00;15.80;;;;;;;19.77;67.41;100827.94;107999;1260;71881;-75
2023/06/17 08:58:55;;;;;;;18.10;14.10;;;;;;;19.91;67.38;100827.91;107395;1260;61972;-76
2023/06/17 09:01:23;;;;;;;18.40;14.00;;;;;;;20.19;66.92;100827.29;107815;1260;59712;-78
2023/06/17 09:03:54;;;;;;;18.80;14.60;;;;;;;20.46;66.79;100827.55;108069;1260;73316;-74
2023/06/17 09:06:25;;;;;;;20.10;14.90;;;;;;;20.80;65.46;100819.95;107928;1261;71261;-77
2023/06/17 09:08:55;;;;;;;17.60;14.60;;;;;;;21.08;64.26;100822.65;107729;1262;72757;-75
2023/06/17 09:11:30;;;;;;;20.20;14.30;;;;;;;21.29;63.05;100826.27;108084;1260;62099;-77
2023/06/17 09:13:58;;;;;;;15.60;13.90;;;;;;;21.39;62.16;100823.36;107735;1259;60378;-76
2023/06/17 09:16:30;;;;;;;16.20;13.20;;;;;;;21.44;61.75;100824.72;107718;1259;72280;-74
2023/06/17 09:18:59;;;;;;;17.70;13.70;;;;;;;21.64;62.08;100820.84;107478;1260;70599;-77
2023/06/17 09:21:27;;;;;;;17.50;14.60;;;;;;;21.87;61.31;100828.27;108085;1259;73433;-77
2023/06/17 09:24:08;;;;;;;19.60;14.90;;;;;;;22.03;60.27;100827.91;108082;1260;59535;-74
2023/06/17 09:26:40;;;;;;;17.80;14.90;;;;;;;22.13;60.04;100826.48;107958;1260;60124;-76
2023/06/17 09:29:09;;;;;;;17.60;13.70;;;;;;;22.32;59.07;100822.88;107835;1261;73550;-78
2023/06/17 09:31:52;;;;;;;14.90;13.20;;;;;;;22.34;58.16;100819.55;107485;1265;71100;-76
2023/06/17 09:34:20;;;;;;;20.00;14.10;;;;;;;22.23;58.10;100822.05;107833;1260;72696;-77
2023/06/17 09:37:00;;;;;;;17.50;13.80;;;;;;;22.24;58.91;100828.18;107766;1265;61235;-75
2023/06/17 09:39:31;;;;;;;15.90;13.30;;;;;;;22.17;58.76;100824.01;107682;1260;59631;-76
2023/06/17 09:42:10;;;;;;;16.20;13.90;;;;;;;22.27;59.58;100818.27;107593;1260;73244;-75
2023/06/17 09:44:39;;;;;;;18.30;14.30;;;;;;;22.41;59.10;100816.40;108081;1257;69174;-75
2023/06/17 09:47:07;;;;;;;15.50;13.80;;;;;;;22.46;58.96;100811.61;108176;1260;71142;-74
2023/06/17 09:49:35;;;;;;;17.80;14.00;;;;;;;22.54;58.81;100814.30;107895;1265;59324;-73
2023/06/17 09:52:05;;;;;;;16.80;13.70;;;;;;;22.56;58.39;100811.45;107878;1260;58901;-75
2023/06/17 09:54:33;;;;;;;16.40;13.20;;;;;;;22.55;58.40;100810.90;107664;1260;74931;-76
2023/06/17 09:57:02;;;;;;;17.30;13.10;;;;;;;22.53;58.34;100808.28;107772;1261;71202;-75
2023/06/17 09:59:30;;;;;;;17.20;13.60;;;;;;;22.50;58.38;100805.10;107115;1261;74810;-74
2023/06/17 10:01:57;;;;;;;15.80;13.40;;;;;;;22.54;59.04;100801.91;107881;1260;61302;-78
2023/06/17 10:04:24;;;;;;;15.90;12.30;;;;;;;22.45;57.73;100802.73;107839;1261;61244;-75
2023/06/17 10:06:53;;;;;;;14.30;12.30;;;;;;;22.42;57.49;100805.99;108183;1259;73816;-76
2023/06/17 10:09:20;;;;;;;16.20;13.00;;;;;;;22.43;58.24;100804.42;107928;1259;71525;-74
2023/06/17 10:11:52;;;;;;;16.00;13.50;;;;;;;22.36;57.82;100807.44;107561;1260;72611;-73
2023/06/17 10:14:27;;;;;;;16.10;13.20;;;;;;;22.38;59.14;100807.66;107816;1259;59902;-77
2023/06/17 10:16:54;;;;;;;14.30;12.70;;;;;;;22.38;57.83;100812.15;107557;1260;60360;-76
2023/06/17 10:19:27;;;;;;;18.20;14.00;;;;;;;22.16;57.33;100813.56;107449;1259;73737;-74
2023/06/17 10:21:55;;;;;;;17.40;14.40;;;;;;;22.14;58.78;100809.42;107684;1260;70907;-77
2023/06/17 10:24:25;;;;;;;18.70;14.00;;;;;;;22.27;59.60;100803.95;108028;1260;71509;-78
2023/06/17 10:26:52;;;;;;;16.70;14.00;;;;;;;22.27;59.13;100801.86;108319;1260;60504;-74
2023/06/17 10:29:20;;;;;;;16.70;13.50;;;;;;;22.34;59.06;100799.94;108040;1260;61362;-73
2023/06/17 10:31:47;;;;;;;17.90;14.10;;;;;;;22.49;59.24;100798.88;107302;1260;73137;-77
2023/06/17 10:34:21;;;;;;;14.70;13.00;;;;;;;22.57;57.72;100800.23;108139;1259;71431;-76
2023/06/17 10:36:57;;;;;;;17.40;13.80;;;;;;;22.49;57.55;100798.66;108084;1260;73388;-76
2023/06/17 10:39:24;;;;;;;18.30;14.10;;;;;;;22.48;58.36;100796.13;107764;1260;60699;-73
2023/06/17 10:41:55;;;;;;;16.70;14.20;;;;;;;22.58;58.64;100800.83;107417;1260;60379;-76
2023/06/17 10:44:35;;;;;;;16.60;14.20;;;;;;;22.53;58.14;100798.98;108398;1259;74288;-76
2023/06/17 10:47:14;;;;;;;16.40;14.00;;;;;;;22.48;58.79;100796.33;107771;1259;72171;-79
2023/06/17 10:49:42;;;;;;;16.90;13.80;;;;;;;22.57;58.88;100792.27;107706;1260;71811;-77
2023/06/17 10:52:13;;;;;;;15.80;14.10;;;;;;;22.73;58.56;100789.26;107921;1260;60886;-79
2023/06/17 10:54:52;;;;;;;16.40;14.10;;;;;;;22.76;57.73;100785.61;108042;1260;60102;-75
2023/06/17 10:57:30;;;;;;;17.60;14.30;;;;;;;22.72;58.78;100782.70;108134;1260;74094;-76
2023/06/17 11:00:08;;;;;;;17.50;14.80;;;;;;;22.80;58.79;100778.73;107648;1259;70117;-74
2023/06/17 11:02:38;;;;;;;16.40;13.80;;;;;;;22.98;58.69;100778.60;107695;1260;73227;-76
2023/06/17 11:05:06;;;;;;;15.90;13.00;;;;;;;23.16;58.31;100779.66;108132;1259;59154;-74
2023/06/17 11:07:33;;;;;;;15.90;14.20;;;;;;;23.35;57.68;100779.99;108281;1259;58992;-75